createdAt,value
2018-12-06T00:02:14.535Z,5.00
2018-12-06T00:04:42.782Z,5.00
2018-12-06T00:07:10.985Z,5.20
2018-12-06T00:09:39.154Z,5.20
2018-12-06T00:12:07.310Z,5.20
2018-12-06T00:14:35.488Z,5.20
2018-12-06T00:17:03.689Z,5.20
2018-12-06T00:19:31.942Z,5.20
2018-12-06T00:22:05.825Z,5.20
2018-12-06T00:24:33.997Z,5.20
2018-12-06T00:27:02.439Z,5.20
2018-12-06T00:29:30.625Z,5.30
2018-12-06T00:32:00.626Z,5.20
2018-12-06T00:34:28.929Z,5.20
2018-12-06T00:36:57.088Z,5.30
2018-12-06T00:39:25.257Z,5.30
2018-12-06T00:42:07.865Z,5.30
2018-12-06T00:44:36.049Z,5.50
2018-12-06T00:47:04.231Z,5.40
2018-12-06T00:49:32.425Z,5.50
2018-12-06T00:52:00.601Z,5.50
2018-12-06T00:54:28.819Z,5.50
2018-12-06T00:56:57.025Z,5.60
2018-12-06T00:59:25.196Z,5.60
2018-12-06T01:02:08.615Z,5.60
2018-12-06T01:04:36.838Z,5.60
2018-12-06T01:07:05.041Z,5.70
2018-12-06T01:09:33.238Z,5.80
2018-12-06T01:12:01.480Z,5.60
2018-12-06T01:14:35.310Z,5.60
2018-12-06T01:17:03.661Z,5.50
2018-12-06T01:19:31.857Z,5.40
2018-12-06T01:22:13.872Z,5.30
2018-12-06T01:24:42.243Z,5.40
2018-12-06T01:27:10.442Z,5.30
2018-12-06T01:29:38.613Z,5.20
2018-12-06T01:32:06.853Z,5.30
2018-12-06T01:34:35.013Z,5.10
2018-12-06T01:37:03.219Z,5.30
2018-12-06T01:39:31.405Z,5.30
2018-12-06T01:41:59.594Z,5.30
2018-12-06T01:44:27.797Z,5.40
2018-12-06T01:46:55.984Z,5.30
2018-12-06T01:49:24.314Z,5.40
2018-12-06T01:54:55.442Z,5.30
2018-12-06T01:57:23.626Z,5.20
2018-12-06T01:59:51.825Z,5.10
2018-12-06T02:02:20.045Z,4.90
2018-12-06T02:04:48.351Z,5.00
2018-12-06T02:07:16.521Z,5.00
2018-12-06T02:09:44.709Z,5.00
2018-12-06T02:12:12.898Z,5.00
2018-12-06T02:14:41.104Z,5.10
2018-12-06T02:17:09.280Z,5.30
2018-12-06T02:19:37.479Z,5.30
2018-12-06T02:22:05.669Z,5.30
2018-12-06T02:24:33.912Z,5.20
2018-12-06T02:27:02.166Z,5.30
2018-12-06T02:29:32.249Z,5.40
2018-12-06T02:32:03.725Z,5.50
2018-12-06T02:34:31.964Z,5.50
2018-12-06T02:37:00.166Z,5.50
2018-12-06T02:39:28.363Z,5.50
2018-12-06T02:41:57.973Z,5.50
2018-12-06T02:44:26.240Z,5.50
2018-12-06T02:46:54.444Z,5.50
2018-12-06T02:49:22.621Z,5.50
2018-12-06T02:51:57.167Z,5.50
2018-12-06T02:54:25.346Z,5.50
2018-12-06T02:56:53.538Z,5.50
2018-12-06T02:59:21.778Z,5.30
2018-12-06T03:02:02.774Z,5.40
2018-12-06T03:04:30.947Z,5.30
2018-12-06T03:06:59.121Z,5.30
2018-12-06T03:09:27.272Z,5.30
2018-12-06T03:12:08.484Z,5.30
2018-12-06T03:14:36.638Z,5.20
2018-12-06T03:17:04.833Z,5.20
2018-12-06T03:22:36.284Z,5.20
2018-12-06T03:25:05.338Z,5.10
2018-12-06T03:27:33.739Z,5.10
2018-12-06T03:30:15.904Z,5.10
2018-12-06T03:32:44.200Z,5.10
2018-12-06T03:35:25.325Z,5.00
2018-12-06T03:37:53.522Z,4.90
2018-12-06T03:40:34.890Z,4.90
2018-12-06T03:43:03.084Z,4.80
2018-12-06T03:45:31.298Z,4.80
2018-12-06T03:47:59.473Z,4.80
2018-12-06T03:50:40.681Z,4.70
2018-12-06T03:53:08.897Z,4.60
2018-12-06T03:55:37.067Z,4.60
2018-12-06T03:58:05.249Z,4.60
2018-12-06T04:00:46.401Z,4.60
2018-12-06T04:03:14.577Z,4.60
2018-12-06T04:05:42.752Z,4.50
2018-12-06T04:08:10.950Z,4.60
2018-12-06T04:10:52.438Z,4.70
2018-12-06T04:13:20.613Z,4.60
2018-12-06T04:15:48.838Z,4.70
2018-12-06T04:18:17.056Z,4.70
2018-12-06T04:20:51.159Z,4.70
2018-12-06T04:23:19.329Z,4.70
2018-12-06T04:25:47.494Z,4.60
2018-12-06T04:28:15.672Z,4.70
2018-12-06T04:30:58.276Z,4.60
2018-12-06T04:33:26.438Z,4.70
2018-12-06T04:35:54.595Z,4.80
2018-12-06T04:38:22.766Z,4.80
2018-12-06T04:41:10.722Z,4.80
2018-12-06T04:43:38.881Z,4.80
2018-12-06T04:46:07.046Z,4.90
2018-12-06T04:48:35.257Z,4.90
2018-12-06T04:51:19.790Z,4.90
2018-12-06T04:53:47.952Z,4.80
2018-12-06T04:56:16.120Z,5.00
2018-12-06T04:58:44.315Z,5.00
2018-12-06T05:01:25.002Z,4.90
2018-12-06T05:03:53.194Z,4.80
2018-12-06T05:06:21.353Z,4.80
2018-12-06T05:08:49.508Z,4.80
2018-12-06T05:11:30.107Z,4.70
2018-12-06T05:13:58.315Z,4.80
2018-12-06T05:16:39.923Z,4.80
2018-12-06T05:19:08.719Z,4.80
2018-12-06T05:21:44.439Z,4.90
2018-12-06T05:24:12.637Z,5.00
2018-12-06T05:26:40.839Z,5.00
2018-12-06T05:29:09.024Z,5.20
2018-12-06T05:31:40.809Z,5.10
2018-12-06T05:34:09.044Z,5.10
2018-12-06T05:36:37.210Z,5.20
2018-12-06T05:39:06.444Z,5.20
2018-12-06T05:41:47.314Z,5.20
2018-12-06T05:44:15.523Z,5.30
2018-12-06T05:46:43.706Z,5.30
2018-12-06T05:49:11.870Z,5.30
2018-12-06T05:51:40.125Z,5.40
2018-12-06T05:54:08.365Z,5.40
2018-12-06T05:56:36.537Z,5.50
2018-12-06T05:59:04.747Z,5.50
2018-12-06T06:01:45.823Z,5.50
2018-12-06T06:04:14.057Z,5.60
2018-12-06T06:06:42.234Z,5.60
2018-12-06T06:09:10.414Z,5.70
2018-12-06T06:11:52.795Z,5.70
2018-12-06T06:14:20.990Z,5.80
2018-12-06T06:16:49.159Z,5.80
2018-12-06T06:19:17.356Z,5.80
2018-12-06T06:24:41.770Z,5.90
2018-12-06T06:27:09.965Z,6.00
2018-12-06T06:29:38.132Z,5.90
2018-12-06T06:32:06.297Z,5.90
2018-12-06T06:34:34.483Z,5.90
2018-12-06T06:37:02.660Z,5.90
2018-12-06T06:39:30.962Z,6.00
2018-12-06T06:42:09.019Z,5.90
2018-12-06T06:44:37.195Z,6.00
2018-12-06T06:47:05.373Z,5.80
2018-12-06T06:49:33.578Z,5.90
2018-12-06T06:52:05.000Z,6.00
2018-12-06T06:54:33.201Z,6.00
2018-12-06T06:57:01.385Z,5.90
2018-12-06T06:59:29.545Z,6.00
2018-12-06T07:02:01.642Z,6.10
2018-12-06T07:04:29.808Z,6.10
2018-12-06T07:06:57.989Z,5.90
2018-12-06T07:09:26.311Z,6.00
2018-12-06T07:11:58.056Z,6.00
2018-12-06T07:14:26.269Z,6.10
2018-12-06T07:16:55.238Z,6.10
2018-12-06T07:19:23.445Z,6.10
2018-12-06T07:21:54.543Z,6.10
2018-12-06T07:24:24.330Z,6.10
2018-12-06T07:26:52.561Z,6.20
2018-12-06T07:29:21.319Z,6.20
2018-12-06T07:31:52.932Z,6.20
2018-12-06T07:34:21.138Z,6.20
2018-12-06T07:36:49.310Z,6.20
2018-12-06T07:39:17.493Z,6.30
2018-12-06T07:41:48.994Z,6.30
2018-12-06T07:44:17.494Z,6.40
2018-12-06T07:46:46.969Z,6.40
2018-12-06T07:49:15.172Z,6.40
2018-12-06T07:51:48.431Z,6.50
2018-12-06T07:54:18.583Z,6.40
2018-12-06T07:56:47.666Z,6.50
2018-12-06T07:59:15.828Z,6.50
2018-12-06T08:01:47.203Z,6.50
2018-12-06T08:04:15.406Z,6.50
2018-12-06T08:06:43.612Z,6.50
2018-12-06T08:09:11.810Z,6.60
2018-12-06T08:11:44.490Z,6.60
2018-12-06T08:14:15.418Z,6.80
2018-12-06T08:16:43.610Z,6.70
2018-12-06T08:19:11.783Z,6.70
2018-12-06T08:21:43.661Z,6.90
2018-12-06T08:24:11.842Z,7.00
2018-12-06T08:26:40.022Z,6.80
2018-12-06T08:29:08.194Z,7.00
2018-12-06T08:31:39.528Z,7.00
2018-12-06T08:34:07.683Z,6.90
2018-12-06T08:36:35.859Z,7.10
2018-12-06T08:39:05.834Z,7.10
2018-12-06T08:41:50.562Z,7.10
2018-12-06T08:44:21.462Z,7.10
2018-12-06T08:46:53.578Z,7.00
2018-12-06T08:49:21.858Z,7.10
2018-12-06T08:51:53.626Z,7.20
2018-12-06T08:54:23.371Z,7.10
2018-12-06T08:56:51.602Z,7.20
2018-12-06T08:59:19.814Z,7.40
2018-12-06T09:01:51.214Z,7.40
2018-12-06T09:04:20.288Z,7.40
2018-12-06T09:06:49.030Z,7.30
2018-12-06T09:09:17.222Z,7.50
2018-12-06T09:11:51.424Z,7.60
2018-12-06T09:14:19.622Z,7.70
2018-12-06T09:16:47.789Z,7.70
2018-12-06T09:19:16.019Z,7.80
2018-12-06T09:21:47.811Z,7.80
2018-12-06T09:24:16.014Z,7.90
2018-12-06T09:26:44.165Z,7.90
2018-12-06T09:29:12.369Z,8.10
2018-12-06T09:31:43.901Z,8.00
2018-12-06T09:34:12.090Z,8.20
2018-12-06T09:36:40.244Z,8.30
2018-12-06T09:39:08.551Z,8.30
2018-12-06T09:41:39.724Z,8.50
2018-12-06T09:44:07.889Z,8.30
2018-12-06T09:46:36.064Z,8.30
2018-12-06T09:49:04.471Z,8.50
2018-12-06T09:51:35.751Z,8.60
2018-12-06T09:54:04.130Z,8.80
2018-12-06T09:56:32.307Z,8.70
2018-12-06T09:59:00.486Z,8.70
2018-12-06T10:01:31.986Z,8.70
2018-12-06T10:04:00.591Z,8.80
2018-12-06T10:06:29.233Z,8.80
2018-12-06T10:08:57.440Z,8.80
2018-12-06T10:11:32.189Z,8.80
2018-12-06T10:14:00.385Z,8.80
2018-12-06T10:16:30.139Z,8.70
2018-12-06T10:18:58.335Z,8.70
2018-12-06T10:21:31.152Z,8.70
2018-12-06T10:23:59.362Z,8.70
2018-12-06T10:26:30.170Z,8.70
2018-12-06T10:28:59.007Z,8.80
2018-12-06T10:31:41.352Z,8.80
2018-12-06T10:34:10.202Z,8.90
2018-12-06T10:36:38.407Z,8.90
2018-12-06T10:39:07.621Z,9.00
2018-12-06T10:41:38.955Z,9.10
2018-12-06T10:44:07.119Z,9.00
2018-12-06T10:46:35.344Z,9.00
2018-12-06T10:49:03.607Z,9.00
2018-12-06T10:51:41.861Z,9.10
2018-12-06T10:54:10.661Z,9.10
2018-12-06T10:56:38.861Z,9.10
2018-12-06T10:59:08.650Z,9.20
2018-12-06T11:01:45.517Z,9.30
2018-12-06T11:04:29.401Z,9.20
2018-12-06T11:07:01.123Z,9.30
2018-12-06T11:09:29.334Z,9.30
2018-12-06T11:12:01.310Z,9.30
2018-12-06T11:14:29.534Z,9.40
2018-12-06T11:16:57.710Z,9.50
2018-12-06T11:19:25.910Z,9.60
2018-12-06T11:21:57.586Z,9.60
2018-12-06T11:24:25.765Z,9.60
2018-12-06T11:26:53.947Z,9.60
2018-12-06T11:29:22.146Z,9.70
2018-12-06T11:31:54.192Z,9.80
2018-12-06T11:34:22.382Z,9.80
2018-12-06T11:36:50.555Z,9.90
2018-12-06T11:39:18.726Z,9.90
2018-12-06T11:41:50.599Z,9.90
2018-12-06T11:44:18.789Z,9.80
2018-12-06T11:46:46.942Z,9.80
2018-12-06T11:49:15.131Z,9.80
2018-12-06T11:51:46.735Z,9.80
2018-12-06T11:54:14.901Z,9.80
2018-12-06T11:56:43.074Z,9.80
2018-12-06T11:59:11.274Z,9.80
2018-12-06T12:01:42.805Z,9.80
2018-12-06T12:04:11.769Z,9.70
2018-12-06T12:06:39.901Z,9.60
2018-12-06T12:09:08.050Z,9.70
2018-12-06T12:11:39.544Z,9.70
2018-12-06T12:14:07.713Z,9.70
2018-12-06T12:16:35.888Z,9.70
2018-12-06T12:19:04.109Z,9.70
2018-12-06T12:21:35.577Z,9.70
2018-12-06T12:24:03.787Z,9.80
2018-12-06T12:26:32.003Z,9.90
2018-12-06T12:29:00.141Z,9.90
2018-12-06T12:31:32.830Z,10.00
2018-12-06T12:34:00.990Z,10.10
2018-12-06T12:36:29.189Z,10.20
2018-12-06T12:38:57.336Z,10.20
2018-12-06T12:41:29.207Z,10.20
2018-12-06T12:43:57.994Z,10.20
2018-12-06T12:46:28.157Z,10.30
2018-12-06T12:48:56.330Z,10.20
2018-12-06T12:51:28.123Z,10.20
2018-12-06T12:53:56.317Z,10.30
2018-12-06T12:56:24.481Z,10.30
2018-12-06T12:58:52.656Z,10.30
2018-12-06T13:01:24.019Z,10.40
2018-12-06T13:03:52.159Z,10.40
2018-12-06T13:06:20.303Z,10.30
2018-12-06T13:08:48.524Z,10.20
2018-12-06T13:11:19.802Z,10.20
2018-12-06T13:13:47.943Z,10.20
2018-12-06T13:16:16.294Z,10.20
2018-12-06T13:18:44.482Z,10.20
2018-12-06T13:21:16.041Z,10.20
2018-12-06T13:23:44.231Z,10.20
2018-12-06T13:26:12.471Z,10.20
2018-12-06T13:28:40.630Z,10.20
2018-12-06T13:31:14.607Z,10.20
2018-12-06T13:33:42.802Z,10.10
2018-12-06T13:36:11.018Z,10.20
2018-12-06T13:38:39.209Z,10.20
2018-12-06T13:41:13.699Z,10.10
2018-12-06T13:43:41.926Z,10.20
2018-12-06T13:46:10.168Z,10.20
2018-12-06T13:48:38.621Z,10.20
2018-12-06T13:51:09.941Z,10.20
2018-12-06T13:53:38.093Z,10.20
2018-12-06T13:56:06.343Z,10.20
2018-12-06T13:58:34.743Z,10.10
2018-12-06T14:03:40.826Z,10.10
2018-12-06T14:06:08.997Z,10.20
2018-12-06T14:08:38.296Z,10.20
2018-12-06T14:11:09.503Z,10.20
2018-12-06T14:13:37.654Z,10.20
2018-12-06T14:16:10.261Z,10.10
2018-12-06T14:18:36.063Z,10.20
2018-12-06T14:21:10.826Z,10.20
2018-12-06T14:23:39.031Z,10.20
2018-12-06T14:26:07.262Z,10.20
2018-12-06T14:28:35.435Z,10.10
2018-12-06T14:31:07.295Z,10.20
2018-12-06T14:33:56.571Z,10.20
2018-12-06T14:36:24.770Z,10.20
2018-12-06T14:38:53.123Z,10.20
2018-12-06T14:41:24.450Z,10.20
2018-12-06T14:43:52.662Z,10.20
2018-12-06T14:46:20.961Z,10.20
2018-12-06T14:48:49.769Z,10.20
2018-12-06T14:51:23.411Z,10.10
2018-12-06T14:53:51.631Z,10.10
2018-12-06T14:56:19.784Z,10.20
2018-12-06T14:58:47.994Z,10.10
2018-12-06T15:01:19.978Z,10.10
2018-12-06T15:03:48.240Z,10.20
2018-12-06T15:06:16.447Z,10.20
2018-12-06T15:08:44.667Z,10.20
2018-12-06T15:11:16.467Z,10.10
2018-12-06T15:13:45.385Z,10.10
2018-12-06T15:16:13.533Z,10.20
2018-12-06T15:18:41.773Z,10.10
2018-12-06T15:21:13.538Z,10.20
2018-12-06T15:23:41.740Z,10.20
2018-12-06T15:26:09.934Z,10.10
2018-12-06T15:28:38.122Z,10.10
2018-12-06T15:31:09.519Z,10.10
2018-12-06T15:33:37.796Z,10.20
2018-12-06T15:36:06.042Z,10.20
2018-12-06T15:38:34.304Z,10.30
2018-12-06T15:41:05.385Z,10.30
2018-12-06T15:43:33.554Z,10.30
2018-12-06T15:46:01.705Z,10.30
2018-12-06T15:48:29.872Z,10.20
2018-12-06T15:51:01.066Z,10.30
2018-12-06T15:53:29.272Z,10.30
2018-12-06T15:55:57.454Z,10.30
2018-12-06T15:58:26.304Z,10.30
2018-12-06T16:00:59.139Z,10.30
2018-12-06T16:03:27.411Z,10.30
2018-12-06T16:05:55.592Z,10.40
2018-12-06T16:08:23.838Z,10.40
2018-12-06T16:10:56.237Z,10.30
2018-12-06T16:13:24.427Z,10.40
2018-12-06T16:15:52.639Z,10.40
2018-12-06T16:18:20.855Z,10.30
2018-12-06T16:20:55.965Z,10.30
2018-12-06T16:23:24.105Z,10.30
2018-12-06T16:25:52.262Z,10.30
2018-12-06T16:28:20.397Z,10.30
2018-12-06T16:30:51.727Z,10.30
2018-12-06T16:33:19.994Z,10.30
2018-12-06T16:35:48.238Z,10.30
2018-12-06T16:38:16.505Z,10.30
2018-12-06T16:40:50.787Z,10.30
2018-12-06T16:43:21.778Z,10.30
2018-12-06T16:45:49.997Z,10.30
2018-12-06T16:48:18.152Z,10.10
2018-12-06T16:50:52.172Z,10.20
2018-12-06T16:53:20.397Z,10.20
2018-12-06T16:55:49.401Z,10.10
2018-12-06T16:58:17.570Z,10.20
2018-12-06T17:00:48.859Z,10.10
2018-12-06T17:03:17.039Z,10.10
2018-12-06T17:05:45.224Z,10.00
2018-12-06T17:08:13.717Z,10.10
2018-12-06T17:10:45.312Z,10.10
2018-12-06T17:13:13.491Z,10.00
2018-12-06T17:15:41.659Z,10.10
2018-12-06T17:18:09.810Z,10.10
2018-12-06T17:20:41.753Z,10.10
2018-12-06T17:23:10.570Z,10.00
2018-12-06T17:25:38.800Z,10.10
2018-12-06T17:28:07.105Z,10.10
2018-12-06T17:30:38.547Z,10.20
2018-12-06T17:33:06.690Z,10.10
2018-12-06T17:35:34.854Z,10.10
2018-12-06T17:38:03.111Z,10.30
2018-12-06T17:40:34.520Z,10.20
2018-12-06T17:43:02.698Z,10.20
2018-12-06T17:45:30.891Z,10.20
2018-12-06T17:47:59.066Z,10.20
2018-12-06T17:51:08.689Z,10.20
2018-12-06T17:53:36.859Z,10.30
2018-12-06T17:56:05.057Z,10.30
2018-12-06T17:58:33.231Z,10.30
2018-12-06T18:01:14.831Z,10.30
2018-12-06T18:03:43.005Z,10.40
2018-12-06T18:06:24.798Z,10.30
2018-12-06T18:08:52.945Z,10.30
2018-12-06T18:11:34.719Z,10.40
2018-12-06T18:14:02.947Z,10.40
2018-12-06T18:16:31.154Z,10.20
2018-12-06T18:18:59.293Z,10.20
2018-12-06T18:21:41.551Z,10.20
2018-12-06T18:24:22.709Z,10.20
2018-12-06T18:26:50.902Z,10.10
2018-12-06T18:29:19.059Z,10.10
2018-12-06T18:31:50.178Z,10.10
2018-12-06T18:34:18.371Z,10.10
2018-12-06T18:36:46.538Z,10.00
2018-12-06T18:39:14.790Z,10.10
2018-12-06T18:41:56.288Z,10.10
2018-12-06T18:44:24.497Z,10.10
2018-12-06T18:46:52.693Z,10.20
2018-12-06T18:49:20.907Z,10.20
2018-12-06T18:52:02.441Z,10.10
2018-12-06T18:54:32.030Z,10.20
2018-12-06T18:57:01.102Z,10.20
2018-12-06T18:59:29.330Z,10.30
2018-12-06T19:05:14.749Z,10.40
2018-12-06T19:07:42.938Z,10.40
2018-12-06T19:10:27.431Z,10.40
2018-12-06T19:12:55.627Z,10.50
2018-12-06T19:15:23.838Z,10.50
2018-12-06T19:17:52.046Z,10.50
2018-12-06T19:23:22.943Z,10.50
2018-12-06T19:25:51.094Z,10.50
2018-12-06T19:28:19.236Z,10.60
2018-12-06T19:31:00.360Z,10.60
2018-12-06T19:33:28.512Z,10.60
2018-12-06T19:35:56.671Z,10.60
2018-12-06T19:38:25.772Z,10.60
2018-12-06T19:41:07.257Z,10.70
2018-12-06T19:43:35.429Z,10.70
2018-12-06T19:46:03.573Z,10.60
2018-12-06T19:48:31.747Z,10.60
2018-12-06T19:51:03.891Z,10.60
2018-12-06T19:53:32.079Z,10.60
2018-12-06T19:56:00.246Z,10.60
2018-12-06T19:58:28.435Z,10.60
2018-12-06T20:01:09.530Z,10.50
2018-12-06T20:03:37.674Z,10.50
2018-12-06T20:06:06.007Z,10.50
2018-12-06T20:08:34.153Z,10.50
2018-12-06T20:11:15.197Z,10.40
2018-12-06T20:13:43.387Z,10.30
2018-12-06T20:16:12.453Z,10.40
2018-12-06T20:18:40.687Z,10.40
2018-12-06T20:21:12.520Z,10.30
2018-12-06T20:23:40.706Z,10.20
2018-12-06T20:26:09.646Z,10.30
2018-12-06T20:28:37.926Z,10.20
2018-12-06T20:31:20.753Z,10.20
2018-12-06T20:33:48.942Z,10.20
2018-12-06T20:36:17.102Z,10.10
2018-12-06T20:38:45.261Z,10.10
2018-12-06T20:41:16.683Z,10.10
2018-12-06T20:43:45.003Z,10.10
2018-12-06T20:46:13.187Z,10.10
2018-12-06T20:48:41.327Z,10.10
2018-12-06T20:51:13.063Z,10.10
2018-12-06T20:53:41.228Z,10.10
2018-12-06T20:56:09.438Z,10.10
2018-12-06T20:58:37.642Z,10.10
2018-12-06T21:01:09.408Z,10.10
2018-12-06T21:03:37.556Z,10.00
2018-12-06T21:06:05.761Z,10.10
2018-12-06T21:08:33.931Z,10.10
2018-12-06T21:11:05.570Z,10.10
2018-12-06T21:13:33.751Z,10.00
2018-12-06T21:16:02.454Z,10.00
2018-12-06T21:18:30.669Z,9.90
2018-12-06T21:23:55.728Z,10.00
2018-12-06T21:26:37.222Z,10.10
2018-12-06T21:29:05.477Z,9.90
2018-12-06T21:31:37.109Z,10.00
2018-12-06T21:34:05.324Z,10.10
2018-12-06T21:36:33.491Z,10.10
2018-12-06T21:39:01.656Z,10.10
2018-12-06T21:41:33.640Z,10.10
2018-12-06T21:44:01.805Z,10.10
2018-12-06T21:46:30.015Z,10.10
2018-12-06T21:48:58.186Z,10.10
2018-12-06T21:51:32.663Z,10.10
2018-12-06T21:54:00.820Z,10.20
2018-12-06T21:56:29.087Z,10.10
2018-12-06T21:58:57.412Z,10.20
2018-12-06T22:01:29.346Z,10.20
2018-12-06T22:03:57.512Z,10.30
2018-12-06T22:06:25.713Z,10.20
2018-12-06T22:08:53.895Z,10.20
2018-12-06T22:11:25.692Z,10.30
2018-12-06T22:13:53.916Z,10.30
2018-12-06T22:16:22.138Z,10.40
2018-12-06T22:18:50.345Z,10.40
2018-12-06T22:21:24.741Z,10.30
2018-12-06T22:23:52.955Z,10.30
2018-12-06T22:26:21.175Z,10.30
2018-12-06T22:28:49.407Z,10.30
2018-12-06T22:31:20.684Z,10.40
2018-12-06T22:33:48.900Z,10.40
2018-12-06T22:36:17.146Z,10.40
2018-12-06T22:38:45.376Z,10.40
2018-12-06T22:41:16.670Z,10.40
2018-12-06T22:43:44.945Z,10.40
2018-12-06T22:46:13.133Z,10.40
2018-12-06T22:48:41.347Z,10.40
2018-12-06T22:51:25.901Z,10.50
2018-12-06T22:53:54.089Z,10.50
2018-12-06T22:56:22.325Z,10.60
2018-12-06T22:58:50.563Z,10.60
2018-12-06T23:01:23.749Z,10.60
2018-12-06T23:03:51.921Z,10.60
2018-12-06T23:06:20.170Z,10.60
2018-12-06T23:08:48.330Z,10.60
2018-12-06T23:11:19.452Z,10.70
2018-12-06T23:13:47.600Z,10.70
2018-12-06T23:16:15.750Z,10.70
2018-12-06T23:18:43.915Z,10.80
2018-12-06T23:21:15.297Z,10.80
2018-12-06T23:23:43.441Z,10.80
2018-12-06T23:26:11.590Z,10.80
2018-12-06T23:28:39.778Z,10.80
2018-12-06T23:31:11.299Z,10.80
2018-12-06T23:33:39.459Z,10.90
2018-12-06T23:36:07.706Z,10.90
2018-12-06T23:38:35.899Z,10.90
2018-12-06T23:41:07.791Z,11.00
2018-12-06T23:43:35.983Z,11.00
2018-12-06T23:46:04.288Z,11.10
2018-12-06T23:48:32.478Z,11.00
2018-12-06T23:54:10.234Z,11.10
2018-12-06T23:56:38.395Z,11.10
2018-12-06T23:59:06.612Z,11.30
